Aloha, Oregon
Current Conditions -  °F | °C
As of 5:53 AM on Monday 20 Oct 2014 (Local Time) from KHIO Reporting Station
Light Rain Light Rain  
Wind Chill: 58°   Ceiling: 9000
Heat Index: 58°   Visibility: 10mi
Dew Point: 57°   Wind: 8mph
Humidity: 97%   Direction: 150°SSE
Pressure: 29.73"   Gusts: NA
Location:  45.49°N, 122.86°W
Report Text: KHIO 201253Z 15007KT 10SM -RA FEW050 OVC090 14/14 A2973 RMK AO2 RAB33 SLP066 P0000 T01440139 TSNO
Loading
Personal Weather Stations






























Interactive Weather Map
Tropical Storm Tracking
New forecast layout! Learn more

10-Day Weather Forecast

Advertisements
Track Severe Weather on mobile